Danbury, CT (06810)

5:27 PM EDT on August 18, 2017 (GMT -0400)
Wooster Village | | Change Station

Elev 472 ft 41.38 °N, 73.46 °W | Updated 3 minutes ago

Mostly Cloudy
Mostly Cloudy
81.3 °F
Feels Like 87 °F
N
0.0
Wind Variable Wind from SSE

Today
High -- | Low -- °F
--% Chance of Precip.
Yesterday
High -- | Low -- °F
Precip. -- in
Pressure 29.79 in
Visibility 9.0 miles
Clouds Mostly Cloudy 1600 ft
Mostly Cloudy 2200 ft
Mostly Cloudy 5000 ft
Heat Index 87 °F
Dew Point 74 °F
Humidity 80%
Rainfall 0.00 in
Snow Depth Not available.
6:06 AM 7:48 PM
Waning Crescent, 11% visible
METAR KDXR 182053Z 20008KT 9SM BKN016 BKN022 BKN050 28/24 A2980 RMK AO2 SLP087 T02780239 56020
Pressure 29.79 in
Visibility 9.0 miles
Clouds Mostly Cloudy 1600 ft
Mostly Cloudy 2200 ft
Mostly Cloudy 5000 ft
Heat Index 87 °F
Dew Point 74 °F
Humidity 80%
Rainfall 0.00 in
Snow Depth Not available.
6:06 AM 7:48 PM
Waning Crescent, 11% visible
METAR KDXR 182053Z 20008KT 9SM BKN016 BKN022 BKN050 28/24 A2980 RMK AO2 SLP087 T02780239 56020

Get Your Daily Forecast Email!

Thanks for signing up!

Be on the lookout for a verification email in your inbox.

You'll start receiving severe weather alerts in your inbox..

×

10-Day Weather Forecast

Almanac

Astronomy

Aug. 18, 2017 Rise Set
Actual Time
Civil Twilight
Nautical Twilight
Astronomical Twilight
Moon
Length of Visible Light
Length of Day
Tomorrow will be .
, % of the Moon is Illuminated

Today's Extremes

State Highs State Lows

Community

WunderPhotos

Category 6

Welcome to Category 6. This is the collective home for Weather Underground's featured writeups by Dr. Jeff Masters (right), Bob Henson (left), Chris Burt, and other regular contributors.

Nearby

Air Quality

  Air Quality AQ Index Pollutant
Not available.

Snow Depth

Station Depth Elevation

Earthquake Activity

City Distance Mag. Time & Date
Minimum magnitude displayed is 2.5.

Coastal Water Temperatures

Place Temperature

Stations

Nearby Weather Stations

Station Location Temp. Windchill Dew Point Humidity Wind Precip. Elev Updated Type
                   

Watches & Warnings

Severe Thunderstorm Watch
Issued: 5:03 PM EDT Aug. 18, 2017 – National Weather Service

Severe Thunderstorm Watch 455 remains in effect until 900 PM EDT
for the following locations


CT
. Connecticut counties included are

Fairfield Litchfield